Terminal Aerodrome Forecast
Issued by NWS

Home | Current Version | Previous Version | Text Only | Print | Product List | Glossary On
Versions: 1 2 3 4 5 6 7 8 9 10 11 12 13 14 15 16
000
FTUS42 KTBW 220520
TAFPGD
TAF
KPGD 220520Z 2206/2306 VRB04KT P6SM VCSH SCT025 SCT100
      TEMPO 2206/2207 3SM -TSRA BKN025CB
     FM221500 17005KT P6SM VCTS SCT030CB SCT100 SCT150
     FM221800 20007KT P6SM VCTS BKN035CB BKN150
     FM222100 22006KT P6SM FEW035 SCT060 BKN150
     FM230100 VRB04KT P6SM FEW030 BKN200=

USA.gov is the U.S. government's official web portal to all federal, state and local government web resources and services.